Time;durP1;ratioP1;P1;durP2;ratioP2;P2;SDS_P1;SDS_P2;PMS_P1;PMS_P2;Temp;Humidity;BMP_temperature;BMP_pressure;BME280_temperature;BME280_humidity;BME280_pressure;Samples;Min_cycle;Max_cycle;Signal;HPM_P1;HPM_P2
2022/03/02 00:01:16;;;;;;;0.00;0.00;;;5.10;57.60;;;;;;4134756;28;20077;-80
2022/03/02 00:03:39;;;;;;;0.00;0.00;;;5.10;57.40;;;;;;4134353;28;20130;-76
2022/03/02 00:06:01;;;;;;;0.00;0.00;;;5.10;57.40;;;;;;4134694;28;20058;-77
2022/03/02 00:08:23;;;;;;;0.00;0.00;;;5.10;57.30;;;;;;4133808;28;20047;-76
2022/03/02 00:10:46;;;;;;;0.00;0.00;;;5.00;57.40;;;;;;4134432;28;20120;-75
2022/03/02 00:13:08;;;;;;;0.00;0.00;;;5.00;57.60;;;;;;4134184;28;20080;-76
2022/03/02 00:15:30;;;;;;;0.00;0.00;;;5.00;57.50;;;;;;4120864;28;20101;-78
2022/03/02 00:17:52;;;;;;;0.00;0.00;;;5.00;57.40;;;;;;4120916;28;20042;-78
2022/03/02 00:20:15;;;;;;;0.00;0.00;;;5.00;57.30;;;;;;4120821;28;20046;-76
2022/03/02 00:22:40;;;;;;;0.00;0.00;;;5.00;57.20;;;;;;4134598;28;20034;-80
2022/03/02 00:25:03;;;;;;;0.00;0.00;;;5.00;57.00;;;;;;4121069;28;20043;-77
2022/03/02 00:27:27;;;;;;;0.00;0.00;;;4.90;57.10;;;;;;4120664;28;20434;-75
2022/03/02 00:29:52;;;;;;;0.00;0.00;;;4.80;57.30;;;;;;4120597;28;20055;-76
2022/03/02 00:32:14;;;;;;;0.00;0.00;;;4.70;57.50;;;;;;4118687;28;20055;-78
2022/03/02 00:34:36;;;;;;;0.00;0.00;;;4.60;57.80;;;;;;4133722;28;20057;-76
2022/03/02 00:36:58;;;;;;;0.00;0.00;;;4.50;58.00;;;;;;4133932;28;20424;-77
2022/03/02 00:39:25;;;;;;;0.00;0.00;;;4.30;58.40;;;;;;4120237;28;20121;-76
2022/03/02 00:41:51;;;;;;;0.00;0.00;;;4.20;58.70;;;;;;4120327;28;20057;-76
2022/03/02 00:44:15;;;;;;;0.00;0.00;;;4.10;58.90;;;;;;4119413;28;20050;-78
2022/03/02 00:46:38;;;;;;;0.00;0.00;;;4.10;58.90;;;;;;4120350;28;20057;-77
2022/03/02 00:49:03;;;;;;;0.00;0.00;;;4.20;58.70;;;;;;4133638;28;20472;-78
2022/03/02 00:51:30;;;;;;;0.00;0.00;;;4.30;58.40;;;;;;4120958;28;20109;-81
2022/03/02 00:53:53;;;;;;;0.00;0.00;;;4.30;58.10;;;;;;4119304;28;20094;-76
2022/03/02 00:56:15;;;;;;;0.00;0.00;;;4.40;57.90;;;;;;4119659;28;20097;-76
2022/03/02 00:58:39;;;;;;;0.00;0.00;;;4.50;57.80;;;;;;4133669;28;20050;-76
2022/03/02 01:01:01;;;;;;;0.00;0.00;;;4.60;57.60;;;;;;4133609;28;20038;-79
2022/03/02 01:03:24;;;;;;;0.00;0.00;;;4.70;57.30;;;;;;4119739;28;20053;-77
2022/03/02 01:05:46;;;;;;;0.00;0.00;;;4.80;57.00;;;;;;4133703;28;20350;-74
2022/03/02 01:08:09;;;;;;;0.00;0.00;;;4.80;57.00;;;;;;4119565;28;20047;-76
2022/03/02 01:10:35;;;;;;;0.00;0.00;;;4.70;57.00;;;;;;4133776;28;20037;-76
2022/03/02 01:13:00;;;;;;;0.00;0.00;;;4.50;57.30;;;;;;4119990;28;20047;-77
2022/03/02 01:15:24;;;;;;;0.00;0.00;;;4.40;57.60;;;;;;4134210;28;20500;-77
2022/03/02 01:18:02;;;;;;;0.00;0.00;;;4.50;57.70;;;;;;4133253;28;20054;-79
2022/03/02 01:20:28;;;;;;;0.00;0.00;;;4.40;57.60;;;;;;4133591;28;20454;-78
2022/03/02 01:23:01;;;;;;;0.00;0.00;;;4.50;57.70;;;;;;4133978;28;20113;-78
2022/03/02 01:25:30;;;;;;;0.00;0.00;;;4.50;57.60;;;;;;4133215;28;20568;-77
2022/03/02 01:27:53;;;;;;;0.00;0.00;;;4.50;57.70;;;;;;4133674;28;20046;-78
2022/03/02 01:30:15;;;;;;;0.00;0.00;;;4.50;57.60;;;;;;4119197;28;20046;-76
2022/03/02 01:32:51;;;;;;;0.00;0.00;;;4.50;57.70;;;;;;4133107;28;20141;-76
2022/03/02 01:35:26;;;;;;;0.00;0.00;;;4.50;57.80;;;;;;4132941;28;20058;-77
2022/03/02 01:38:00;;;;;;;0.00;0.00;;;4.50;57.90;;;;;;4120849;28;20046;-79
2022/03/02 01:40:32;;;;;;;0.00;0.00;;;4.50;57.90;;;;;;4132776;28;20572;-76
2022/03/02 01:43:00;;;;;;;0.00;0.00;;;4.50;57.90;;;;;;4116758;28;20062;-77
2022/03/02 01:45:32;;;;;;;0.00;0.00;;;4.50;58.20;;;;;;4117512;28;20489;-79
2022/03/02 01:47:58;;;;;;;0.00;0.00;;;4.50;58.30;;;;;;4115553;28;20487;-76
2022/03/02 01:50:21;;;;;;;0.00;0.00;;;4.40;58.50;;;;;;4132078;28;20337;-75
2022/03/02 01:52:55;;;;;;;0.00;0.00;;;4.40;58.70;;;;;;4121083;28;20449;-77
2022/03/02 01:55:21;;;;;;;0.00;0.00;;;4.40;58.90;;;;;;4133165;28;20061;-78
2022/03/02 01:57:53;;;;;;;0.00;0.00;;;4.40;59.00;;;;;;4132575;28;20504;-78
2022/03/02 02:00:21;;;;;;;0.00;0.00;;;4.40;59.10;;;;;;4132062;28;20384;-78
2022/03/02 02:02:51;;;;;;;0.00;0.00;;;4.40;59.30;;;;;;4132391;28;20101;-79
2022/03/02 02:05:36;;;;;;;0.00;0.00;;;4.30;59.50;;;;;;4123429;28;20110;-80
2022/03/02 02:08:11;;;;;;;0.00;0.00;;;4.30;59.70;;;;;;4131867;28;20046;-78
2022/03/02 02:10:44;;;;;;;0.00;0.00;;;4.30;59.80;;;;;;4133269;28;20049;-78
2022/03/02 02:13:16;;;;;;;0.00;0.00;;;4.30;59.90;;;;;;4132420;28;20072;-79
2022/03/02 02:15:50;;;;;;;0.00;0.00;;;4.20;60.40;;;;;;4120051;28;20042;-75
2022/03/02 02:18:19;;;;;;;0.00;0.00;;;4.20;60.80;;;;;;4105235;28;20050;-81
2022/03/02 02:20:45;;;;;;;0.00;0.00;;;4.10;61.10;;;;;;4132221;28;20042;-77
2022/03/02 02:23:21;;;;;;;0.00;0.00;;;4.10;61.50;;;;;;4132103;28;20073;-79
2022/03/02 02:25:53;;;;;;;0.00;0.00;;;4.10;61.40;;;;;;4132357;28;20129;-77
2022/03/02 02:28:24;;;;;;;0.00;0.00;;;4.10;61.50;;;;;;4131797;28;20158;-78
2022/03/02 02:30:50;;;;;;;0.00;0.00;;;4.10;61.70;;;;;;4132411;28;20058;-76
2022/03/02 02:33:14;;;;;;;0.00;0.00;;;4.10;61.70;;;;;;4118995;28;20496;-76
2022/03/02 02:35:41;;;;;;;0.00;0.00;;;4.10;61.90;;;;;;4132117;28;20047;-77
2022/03/02 02:38:03;;;;;;;0.00;0.00;;;4.10;61.90;;;;;;4132194;28;20058;-80
2022/03/02 02:40:28;;;;;;;0.00;0.00;;;4.20;62.00;;;;;;4091430;28;20080;-76
2022/03/02 02:42:50;;;;;;;0.00;0.00;;;4.10;62.20;;;;;;4132228;28;20069;-77
2022/03/02 02:45:17;;;;;;;0.00;0.00;;;4.10;62.40;;;;;;4118792;28;20672;-78
2022/03/02 02:47:40;;;;;;;0.00;0.00;;;4.10;62.60;;;;;;4131938;28;20058;-79
2022/03/02 02:50:19;;;;;;;0.00;0.00;;;4.10;62.60;;;;;;4118563;28;20105;-79
2022/03/02 02:52:43;;;;;;;0.00;0.00;;;4.10;63.30;;;;;;4131533;28;20038;-79
2022/03/02 02:55:13;;;;;;;0.00;0.00;;;4.20;62.70;;;;;;4132919;28;20113;-76
2022/03/02 02:57:38;;;;;;;0.00;0.00;;;4.20;62.80;;;;;;4132702;28;20097;-77
2022/03/02 03:00:00;;;;;;;0.00;0.00;;;4.20;63.00;;;;;;4118880;28;20043;-78
2022/03/02 03:02:21;;;;;;;0.00;0.00;;;4.10;63.90;;;;;;4131690;28;20128;-74
2022/03/02 03:04:44;;;;;;;0.00;0.00;;;3.90;65.00;;;;;;4131767;28;20483;-76
2022/03/02 03:07:06;;;;;;;0.00;0.00;;;3.70;66.10;;;;;;4132204;28;20073;-75
2022/03/02 03:09:33;;;;;;;0.00;0.00;;;3.60;66.80;;;;;;4131521;28;20145;-78
2022/03/02 03:12:02;;;;;;;0.00;0.00;;;3.70;66.60;;;;;;4131633;28;20046;-75
2022/03/02 03:14:26;;;;;;;0.00;0.00;;;3.90;66.60;;;;;;4118038;28;20054;-78
2022/03/02 03:16:51;;;;;;;0.00;0.00;;;3.80;66.50;;;;;;4117456;28;20055;-77
2022/03/02 03:19:13;;;;;;;0.00;0.00;;;3.90;66.40;;;;;;4131841;28;20042;-75
2022/03/02 03:21:36;;;;;;;0.00;0.00;;;3.90;66.10;;;;;;4131637;28;20054;-76
2022/03/02 03:24:01;;;;;;;0.00;0.00;;;4.00;66.00;;;;;;4131797;28;20050;-78
2022/03/02 03:26:23;;;;;;;0.00;0.00;;;4.00;65.80;;;;;;4117846;28;20053;-77
2022/03/02 03:28:50;;;;;;;0.00;0.00;;;4.00;65.60;;;;;;4131525;28;20465;-77
2022/03/02 03:31:14;;;;;;;0.00;0.00;;;4.00;65.50;;;;;;4118511;28;20046;-77
2022/03/02 03:33:39;;;;;;;0.00;0.00;;;4.00;65.60;;;;;;4131847;28;20055;-76
2022/03/02 03:36:02;;;;;;;0.00;0.00;;;4.00;65.60;;;;;;4131533;28;20110;-77
2022/03/02 03:38:24;;;;;;;0.00;0.00;;;3.90;65.60;;;;;;4117921;28;20146;-78
2022/03/02 03:40:46;;;;;;;0.00;0.00;;;3.80;65.60;;;;;;4104943;28;20474;-76
2022/03/02 03:43:08;;;;;;;0.00;0.00;;;3.80;65.40;;;;;;4117907;28;20411;-75
2022/03/02 03:45:30;;;;;;;0.00;0.00;;;3.90;65.30;;;;;;4131346;28;20102;-77
2022/03/02 03:47:56;;;;;;;0.00;0.00;;;3.80;65.20;;;;;;4117749;28;20047;-76
2022/03/02 03:50:20;;;;;;;0.00;0.00;;;3.80;65.00;;;;;;4116825;28;20130;-77
2022/03/02 03:52:42;;;;;;;0.00;0.00;;;3.80;64.90;;;;;;4117997;28;20043;-76
2022/03/02 03:55:08;;;;;;;0.00;0.00;;;3.70;64.80;;;;;;4117590;28;20105;-75
2022/03/02 03:57:30;;;;;;;0.00;0.00;;;3.70;64.60;;;;;;4104578;28;20058;-74
2022/03/02 03:59:52;;;;;;;0.00;0.00;;;3.70;64.60;;;;;;4117611;28;20039;-78
2022/03/02 04:02:19;;;;;;;0.00;0.00;;;3.60;64.90;;;;;;4117641;28;20050;-77
2022/03/02 04:04:44;;;;;;;0.00;0.00;;;3.50;65.20;;;;;;4117665;28;20082;-77
2022/03/02 04:07:06;;;;;;;0.00;0.00;;;3.50;65.10;;;;;;4131079;28;20129;-77
2022/03/02 04:09:28;;;;;;;0.00;0.00;;;3.50;65.00;;;;;;4117666;28;20117;-78
2022/03/02 04:11:50;;;;;;;0.00;0.00;;;3.60;64.90;;;;;;4117886;28;20153;-75
2022/03/02 04:14:15;;;;;;;0.00;0.00;;;3.70;64.80;;;;;;4130860;28;20058;-75
2022/03/02 04:16:38;;;;;;;0.00;0.00;;;3.60;64.70;;;;;;4131369;28;20046;-80
2022/03/02 04:19:00;;;;;;;0.00;0.00;;;3.60;64.80;;;;;;4131343;28;20114;-74
2022/03/02 04:21:27;;;;;;;0.00;0.00;;;3.50;64.80;;;;;;4117608;28;20442;-74
2022/03/02 04:23:49;;;;;;;0.00;0.00;;;3.40;65.10;;;;;;4131322;28;20050;-76
2022/03/02 04:26:13;;;;;;;0.00;0.00;;;3.40;65.20;;;;;;4115634;28;20051;-76
2022/03/02 04:28:35;;;;;;;0.00;0.00;;;3.40;65.30;;;;;;4120987;28;20051;-77
2022/03/02 04:31:02;;;;;;;0.00;0.00;;;3.40;65.30;;;;;;4134347;28;20129;-77
2022/03/02 04:33:25;;;;;;;0.00;0.00;;;3.40;65.40;;;;;;4120785;28;20450;-75
2022/03/02 04:35:47;;;;;;;0.00;0.00;;;3.50;65.50;;;;;;4121074;28;20493;-78
2022/03/02 04:38:15;;;;;;;0.00;0.00;;;3.60;65.30;;;;;;4118452;28;20058;-76
2022/03/02 04:40:37;;;;;;;0.00;0.00;;;3.50;65.20;;;;;;4120612;28;20051;-76
2022/03/02 04:42:59;;;;;;;0.00;0.00;;;3.50;65.40;;;;;;4120894;28;20082;-77
2022/03/02 04:45:27;;;;;;;0.00;0.00;;;3.50;65.30;;;;;;4134142;28;20046;-78
2022/03/02 04:47:52;;;;;;;0.00;0.00;;;3.50;65.20;;;;;;4107359;28;20053;-77
2022/03/02 04:50:16;;;;;;;0.00;0.00;;;3.50;65.20;;;;;;4105431;28;20102;-79
2022/03/02 04:52:43;;;;;;;0.00;0.00;;;3.40;65.30;;;;;;4134363;28;20043;-78
2022/03/02 04:55:05;;;;;;;0.00;0.00;;;3.30;65.50;;;;;;4134017;28;20061;-77
2022/03/02 04:57:30;;;;;;;0.00;0.00;;;3.20;65.40;;;;;;4133975;28;20042;-77
2022/03/02 04:59:57;;;;;;;0.00;0.00;;;3.20;65.50;;;;;;4120630;28;20472;-76
2022/03/02 05:02:19;;;;;;;0.00;0.00;;;3.30;65.30;;;;;;4133960;28;20089;-78
2022/03/02 05:04:41;;;;;;;0.00;0.00;;;3.30;65.20;;;;;;4120715;28;20135;-77
2022/03/02 05:07:06;;;;;;;0.00;0.00;;;3.30;65.10;;;;;;4134321;28;20085;-76
2022/03/02 05:09:33;;;;;;;0.00;0.00;;;3.30;65.00;;;;;;4120630;28;20089;-75
2022/03/02 05:11:57;;;;;;;0.00;0.00;;;3.30;65.10;;;;;;4107754;28;20136;-78
2022/03/02 05:14:19;;;;;;;0.00;0.00;;;3.30;65.10;;;;;;4133597;28;20511;-77
2022/03/02 05:16:41;;;;;;;0.00;0.00;;;3.30;65.10;;;;;;4134440;28;20042;-78
2022/03/02 05:19:03;;;;;;;0.00;0.00;;;3.40;65.10;;;;;;4120627;28;20129;-79
2022/03/02 05:21:27;;;;;;;0.00;0.00;;;3.40;64.90;;;;;;4133905;28;20065;-76
2022/03/02 05:23:54;;;;;;;0.00;0.00;;;3.20;65.10;;;;;;4133738;28;20062;-77
2022/03/02 05:26:16;;;;;;;0.00;0.00;;;3.20;65.30;;;;;;4118713;28;20054;-78
2022/03/02 05:28:40;;;;;;;0.00;0.00;;;3.30;65.30;;;;;;4133612;28;20120;-75
2022/03/02 05:31:03;;;;;;;0.00;0.00;;;3.20;65.30;;;;;;4106747;28;20047;-79
2022/03/02 05:33:27;;;;;;;0.00;0.00;;;3.10;65.20;;;;;;4133561;28;20125;-75
2022/03/02 05:35:49;;;;;;;0.00;0.00;;;3.00;65.40;;;;;;4133638;28;20128;-76
2022/03/02 05:38:11;;;;;;;0.00;0.00;;;3.00;65.60;;;;;;4119314;28;20424;-77
2022/03/02 05:40:33;;;;;;;0.00;0.00;;;3.10;65.60;;;;;;4119708;28;20086;-80
2022/03/02 05:42:59;;;;;;;0.00;0.00;;;3.10;65.60;;;;;;4119965;28;20050;-75
2022/03/02 05:45:21;;;;;;;0.00;0.00;;;3.20;65.50;;;;;;4119980;28;20054;-76
2022/03/02 05:47:45;;;;;;;0.00;0.00;;;3.20;65.40;;;;;;4133707;28;20133;-76
2022/03/02 05:50:09;;;;;;;0.00;0.00;;;3.10;65.50;;;;;;4119615;28;20069;-80
2022/03/02 05:52:31;;;;;;;0.00;0.00;;;3.10;65.50;;;;;;4133468;28;20046;-76
2022/03/02 05:54:58;;;;;;;0.00;0.00;;;3.20;65.70;;;;;;4119366;28;20047;-77
2022/03/02 05:57:25;;;;;;;0.00;0.00;;;3.20;65.70;;;;;;4119647;28;20046;-74
2022/03/02 05:59:47;;;;;;;0.00;0.00;;;3.20;66.10;;;;;;4119745;28;20058;-76
2022/03/02 06:02:15;;;;;;;0.00;0.00;;;3.20;66.30;;;;;;4117231;28;20057;-80
2022/03/02 06:04:37;;;;;;;0.00;0.00;;;3.30;66.30;;;;;;4106090;28;20075;-76
2022/03/02 06:07:02;;;;;;;0.00;0.00;;;3.30;66.60;;;;;;4120246;28;20101;-78
2022/03/02 06:09:24;;;;;;;0.00;0.00;;;3.20;67.00;;;;;;4119949;28;20122;-78
2022/03/02 06:11:49;;;;;;;0.00;0.00;;;3.20;67.40;;;;;;4132900;28;20062;-72
2022/03/02 06:14:14;;;;;;;0.00;0.00;;;3.20;67.50;;;;;;4103801;28;20058;-77
2022/03/02 06:16:39;;;;;;;0.00;0.00;;;3.20;67.60;;;;;;4133424;28;20058;-74
2022/03/02 06:19:07;;;;;;;0.00;0.00;;;3.30;67.70;;;;;;4119688;28;20046;-75
2022/03/02 06:21:37;;;;;;;0.00;0.00;;;3.30;67.90;;;;;;4132703;28;20082;-77
2022/03/02 06:24:01;;;;;;;0.00;0.00;;;3.40;68.00;;;;;;4132908;28;20058;-77
2022/03/02 06:26:26;;;;;;;0.00;0.00;;;3.40;68.10;;;;;;4118994;28;20054;-77
2022/03/02 06:28:49;;;;;;;0.00;0.00;;;3.40;68.20;;;;;;4119726;28;20046;-78
2022/03/02 06:31:18;;;;;;;0.00;0.00;;;3.40;68.70;;;;;;4119464;28;20066;-76
2022/03/02 06:33:40;;;;;;;0.00;0.00;;;3.50;69.00;;;;;;4119926;28;20046;-78
2022/03/02 06:36:06;;;;;;;0.00;0.00;;;3.50;69.10;;;;;;4116211;28;20046;-78
2022/03/02 06:38:33;;;;;;;0.00;0.00;;;3.60;69.00;;;;;;4116916;28;20042;-77
2022/03/02 06:41:02;;;;;;;0.00;0.00;;;3.70;69.00;;;;;;4132688;28;20054;-76
2022/03/02 06:43:26;;;;;;;0.00;0.00;;;3.80;68.70;;;;;;4119202;28;20096;-76
2022/03/02 06:45:57;;;;;;;0.00;0.00;;;4.00;68.70;;;;;;4132910;28;20054;-76
2022/03/02 06:48:24;;;;;;;0.00;0.00;;;4.10;68.80;;;;;;4118982;28;20070;-76
2022/03/02 06:50:54;;;;;;;0.00;0.00;;;4.20;68.60;;;;;;4105121;28;20051;-76
2022/03/02 06:53:16;;;;;;;0.00;0.00;;;4.50;68.50;;;;;;4092344;28;20385;-75
2022/03/02 06:55:46;;;;;;;0.00;0.00;;;4.40;68.40;;;;;;4132353;28;20042;-78
2022/03/02 06:58:11;;;;;;;0.00;0.00;;;4.50;68.80;;;;;;4116395;28;20465;-76
2022/03/02 07:00:39;;;;;;;0.00;0.00;;;4.80;68.80;;;;;;4105742;28;20072;-77
2022/03/02 07:03:09;;;;;;;0.00;0.00;;;4.90;68.30;;;;;;4118807;28;20120;-76
2022/03/02 07:05:32;;;;;;;0.00;0.00;;;5.10;68.00;;;;;;4118836;28;20480;-76
2022/03/02 07:07:54;;;;;;;0.00;0.00;;;5.30;67.70;;;;;;4130999;28;20042;-72
2022/03/02 07:10:20;;;;;;;0.00;0.00;;;5.30;67.60;;;;;;4131701;28;20050;-76
2022/03/02 07:12:44;;;;;;;0.00;0.00;;;5.40;67.50;;;;;;4132286;28;20089;-76
2022/03/02 07:15:10;;;;;;;0.00;0.00;;;5.40;67.40;;;;;;4105520;28;20482;-75
2022/03/02 07:17:36;;;;;;;0.00;0.00;;;5.50;67.30;;;;;;4118073;28;20204;-76
2022/03/02 07:20:06;;;;;;;0.00;0.00;;;5.50;67.30;;;;;;4131900;28;20522;-75
2022/03/02 07:22:35;;;;;;;0.00;0.00;;;5.70;67.40;;;;;;4131399;28;20042;-75
2022/03/02 07:25:11;;;;;;;0.00;0.00;;;5.70;67.10;;;;;;4118429;28;20108;-75
2022/03/02 07:27:38;;;;;;;0.00;0.00;;;5.90;67.70;;;;;;4119077;28;20046;-75
2022/03/02 07:30:04;;;;;;;0.00;0.00;;;5.90;67.10;;;;;;4118501;28;20404;-76
2022/03/02 07:32:37;;;;;;;0.00;0.00;;;6.00;67.20;;;;;;4131339;28;20035;-75
2022/03/02 07:35:03;;;;;;;0.00;0.00;;;6.20;66.60;;;;;;4131728;28;20054;-76
2022/03/02 07:37:27;;;;;;;0.00;0.00;;;6.10;66.90;;;;;;4118442;28;20050;-76
2022/03/02 07:39:52;;;;;;;0.00;0.00;;;6.50;66.50;;;;;;4118610;28;20054;-75
2022/03/02 07:42:14;;;;;;;0.00;0.00;;;6.60;66.10;;;;;;4117828;28;20130;-75
2022/03/02 07:44:38;;;;;;;0.00;0.00;;;6.50;65.60;;;;;;4118614;28;20500;-74
2022/03/02 07:47:05;;;;;;;0.00;0.00;;;6.50;66.20;;;;;;4118263;28;20139;-76
2022/03/02 07:49:30;;;;;;;0.00;0.00;;;6.70;65.80;;;;;;4131647;28;20481;-74
2022/03/02 07:51:57;;;;;;;0.00;0.00;;;6.90;66.00;;;;;;4132087;28;20062;-76
2022/03/02 07:54:21;;;;;;;0.00;0.00;;;7.20;65.40;;;;;;4117130;28;20066;-77
2022/03/02 07:56:44;;;;;;;0.00;0.00;;;7.30;64.90;;;;;;4118603;28;20054;-76
2022/03/02 07:59:10;;;;;;;0.00;0.00;;;7.70;64.50;;;;;;4131631;28;20428;-76
2022/03/02 08:01:36;;;;;;;0.00;0.00;;;8.00;63.90;;;;;;4118370;28;20377;-76
2022/03/02 08:04:09;;;;;;;0.00;0.00;;;8.30;63.30;;;;;;4135046;28;20050;-77
2022/03/02 08:06:35;;;;;;;0.00;0.00;;;8.60;62.20;;;;;;4121002;28;20046;-76
2022/03/02 08:08:58;;;;;;;0.00;0.00;;;8.30;62.10;;;;;;4134710;28;20105;-75
2022/03/02 08:11:23;;;;;;;0.00;0.00;;;8.30;61.70;;;;;;4134625;28;20046;-75
2022/03/02 08:13:48;;;;;;;0.00;0.00;;;8.60;62.50;;;;;;4121600;28;20424;-75
2022/03/02 08:16:14;;;;;;;0.00;0.00;;;9.20;61.50;;;;;;4105870;28;20056;-75
2022/03/02 08:18:39;;;;;;;0.00;0.00;;;9.30;60.10;;;;;;4121234;28;20462;-75
2022/03/02 08:21:02;;;;;;;0.00;0.00;;;9.30;60.10;;;;;;4134879;28;20097;-75
2022/03/02 08:23:32;;;;;;;0.00;0.00;;;9.20;59.10;;;;;;4134874;28;20121;-76
2022/03/02 08:25:55;;;;;;;0.00;0.00;;;9.30;59.10;;;;;;4107994;28;20066;-74
2022/03/02 08:28:19;;;;;;;0.00;0.00;;;9.80;58.90;;;;;;4120862;28;20058;-76
2022/03/02 08:30:44;;;;;;;0.00;0.00;;;10.30;57.80;;;;;;4134537;28;20054;-76
2022/03/02 08:33:12;;;;;;;0.00;0.00;;;10.40;57.00;;;;;;4134570;28;20560;-76
2022/03/02 08:35:40;;;;;;;0.00;0.00;;;10.50;56.50;;;;;;4120830;28;20078;-76
2022/03/02 08:38:09;;;;;;;0.00;0.00;;;10.10;55.00;;;;;;4121144;28;20046;-77
2022/03/02 08:40:31;;;;;;;0.00;0.00;;;9.50;56.70;;;;;;4147778;28;20061;-77
2022/03/02 08:43:00;;;;;;;0.00;0.00;;;8.90;58.30;;;;;;4134648;28;20044;-76
2022/03/02 08:45:26;;;;;;;0.00;0.00;;;9.10;58.40;;;;;;4134253;28;20064;-76
2022/03/02 08:47:48;;;;;;;0.00;0.00;;;9.10;58.30;;;;;;4134324;28;20042;-76
2022/03/02 08:50:17;;;;;;;0.00;0.00;;;8.70;58.80;;;;;;4118613;28;20080;-76
2022/03/02 08:52:42;;;;;;;0.00;0.00;;;8.60;58.70;;;;;;4120996;28;20034;-76
2022/03/02 08:55:08;;;;;;;0.00;0.00;;;8.40;59.50;;;;;;4120577;28;20086;-75
2022/03/02 08:57:36;;;;;;;0.00;0.00;;;8.70;59.10;;;;;;4120466;28;20385;-75
2022/03/02 09:00:03;;;;;;;0.00;0.00;;;8.90;58.10;;;;;;4134098;28;20042;-75
2022/03/02 09:02:28;;;;;;;0.00;0.00;;;9.00;57.60;;;;;;4120095;28;20059;-75
2022/03/02 09:04:52;;;;;;;0.00;0.00;;;9.70;56.80;;;;;;4106968;28;20039;-76
2022/03/02 09:07:17;;;;;;;0.00;0.00;;;10.30;54.70;;;;;;4134056;28;20113;-76
2022/03/02 09:09:40;;;;;;;0.00;0.00;;;9.80;54.80;;;;;;4133825;28;20071;-75
2022/03/02 09:12:05;;;;;;;0.00;0.00;;;9.20;55.90;;;;;;4120196;28;20587;-75
2022/03/02 09:14:31;;;;;;;0.00;0.00;;;9.10;55.80;;;;;;4106224;28;20061;-76
2022/03/02 09:16:53;;;;;;;0.00;0.00;;;9.40;54.60;;;;;;4120318;28;20472;-77
2022/03/02 09:19:15;;;;;;;0.00;0.00;;;9.90;53.40;;;;;;4133234;28;20046;-76
2022/03/02 09:21:38;;;;;;;0.00;0.00;;;10.30;52.30;;;;;;4120519;28;20042;-74
2022/03/02 09:24:03;;;;;;;0.00;0.00;;;10.80;51.40;;;;;;4106857;28;20105;-76
2022/03/02 09:26:27;;;;;;;0.00;0.00;;;10.70;51.80;;;;;;4119557;28;20551;-73
2022/03/02 09:28:55;;;;;;;0.00;0.00;;;10.40;51.70;;;;;;4120104;28;20054;-74
2022/03/02 09:31:20;;;;;;;0.00;0.00;;;10.40;50.90;;;;;;4124632;28;20552;-74
2022/03/02 09:33:58;;;;;;;0.00;0.00;;;10.40;50.40;;;;;;4130718;28;20056;-76
2022/03/02 09:36:24;;;;;;;0.00;0.00;;;10.30;50.30;;;;;;4118758;28;20134;-73
2022/03/02 09:38:50;;;;;;;0.00;0.00;;;10.50;50.50;;;;;;4120005;28;20108;-74
2022/03/02 09:41:28;;;;;;;0.00;0.00;;;10.60;50.40;;;;;;4119836;28;20046;-76
2022/03/02 09:43:58;;;;;;;0.00;0.00;;;10.50;51.10;;;;;;4133259;28;20061;-74
2022/03/02 09:46:45;;;;;;;0.00;0.00;;;10.70;51.00;;;;;;4118989;28;20401;-74
2022/03/02 09:49:12;;;;;;;0.00;0.00;;;10.50;51.20;;;;;;4119852;28;20532;-75
2022/03/02 09:51:37;;;;;;;0.00;0.00;;;10.30;51.30;;;;;;4133183;28;20054;-74
2022/03/02 09:54:03;;;;;;;0.00;0.00;;;10.20;51.80;;;;;;4119719;28;20061;-74
2022/03/02 09:56:31;;;;;;;0.00;0.00;;;10.30;51.30;;;;;;4119252;28;20372;-75
2022/03/02 09:58:54;;;;;;;0.00;0.00;;;10.10;51.10;;;;;;4119728;28;20078;-75
2022/03/02 10:01:24;;;;;;;0.00;0.00;;;10.10;51.20;;;;;;4119515;28;20054;-75
2022/03/02 10:03:52;;;;;;;0.00;0.00;;;10.20;50.20;;;;;;4132947;28;20137;-75
2022/03/02 10:06:23;;;;;;;0.00;0.00;;;10.20;50.30;;;;;;4092025;28;20399;-74
2022/03/02 10:08:53;;;;;;;0.00;0.00;;;10.40;49.40;;;;;;4119300;28;20505;-75
2022/03/02 10:11:21;;;;;;;0.00;0.00;;;10.40;47.80;;;;;;4105896;28;20050;-75
2022/03/02 10:13:43;;;;;;;0.00;0.00;;;10.20;47.70;;;;;;4132606;28;20046;-75
2022/03/02 10:16:11;;;;;;;0.00;0.00;;;10.10;47.10;;;;;;4118818;28;20572;-74
2022/03/02 10:18:37;;;;;;;0.00;0.00;;;10.10;47.00;;;;;;4132836;28;20048;-76
2022/03/02 10:21:05;;;;;;;0.00;0.00;;;10.30;47.10;;;;;;4132662;28;20557;-75
2022/03/02 10:23:42;;;;;;;0.00;0.00;;;10.60;46.00;;;;;;4119145;28;20102;-74
2022/03/02 10:26:24;;;;;;;0.00;0.00;;;10.90;45.70;;;;;;4132340;28;20054;-76
2022/03/02 10:28:58;;;;;;;0.00;0.00;;;11.10;45.50;;;;;;4118919;28;20056;-75
2022/03/02 10:31:40;;;;;;;0.00;0.00;;;11.30;44.30;;;;;;4119106;28;20080;-74
2022/03/02 10:34:29;;;;;;;0.00;0.00;;;11.30;43.40;;;;;;4102962;28;20059;-73
2022/03/02 10:37:31;;;;;;;0.00;0.00;;;11.30;43.00;;;;;;4132432;28;20046;-76
2022/03/02 10:40:16;;;;;;;0.00;0.00;;;11.20;42.60;;;;;;4119333;28;20477;-76
2022/03/02 10:43:05;;;;;;;0.00;0.00;;;11.60;40.70;;;;;;4118833;28;20453;-75
2022/03/02 10:45:46;;;;;;;0.00;0.00;;;11.80;41.00;;;;;;4132109;28;20120;-75
2022/03/02 10:48:30;;;;;;;0.00;0.00;;;11.50;40.60;;;;;;4118260;28;20781;-76
2022/03/02 10:50:55;;;;;;;;;;;12.00;41.60;;;;;;4132822;28;20046;-76
2022/03/02 10:53:19;;;;;;;0.00;0.00;;;12.50;41.80;;;;;;4146232;28;19932;-77
2022/03/02 10:55:50;;;;;;;0.00;0.00;;;12.70;40.30;;;;;;4131930;28;20052;-76
2022/03/02 10:58:15;;;;;;;0.00;0.00;;;12.90;40.20;;;;;;4118797;28;20054;-76
2022/03/02 11:00:37;;;;;;;0.00;0.00;;;13.30;39.70;;;;;;4118465;28;20098;-76
2022/03/02 11:03:04;;;;;;;0.00;0.00;;;13.70;39.00;;;;;;4118426;28;20524;-75
2022/03/02 11:05:33;;;;;;;0.00;0.00;;;13.80;38.20;;;;;;4092145;28;20052;-76
2022/03/02 11:07:55;;;;;;;0.00;0.00;;;14.30;37.90;;;;;;4132289;28;20054;-76
2022/03/02 11:10:21;;;;;;;0.00;0.00;;;14.70;37.30;;;;;;4103951;28;20054;-75
2022/03/02 11:12:45;;;;;;;0.00;0.00;;;14.10;37.10;;;;;;4132144;28;20492;-75
2022/03/02 11:15:11;;;;;;;0.00;0.00;;;13.60;37.30;;;;;;4118348;28;20043;-75
2022/03/02 11:17:39;;;;;;;0.00;0.00;;;13.10;38.00;;;;;;4118182;28;20050;-76
2022/03/02 11:20:07;;;;;;;0.00;0.00;;;12.80;38.90;;;;;;4131869;28;20096;-75
2022/03/02 11:22:29;;;;;;;0.00;0.00;;;12.80;38.10;;;;;;4117940;28;20046;-74
2022/03/02 11:24:55;;;;;;;0.00;0.00;;;12.60;38.00;;;;;;4131890;28;20060;-76
2022/03/02 11:27:53;;;;;;;0.00;0.00;;;12.70;37.40;;;;;;4131686;28;20058;-77
2022/03/02 11:30:18;;;;;;;0.00;0.00;;;12.70;37.30;;;;;;4117262;28;20116;-76
2022/03/02 11:32:48;;;;;;;0.00;0.00;;;12.80;37.50;;;;;;4118306;28;20179;-76
2022/03/02 11:35:18;;;;;;;0.00;0.00;;;12.30;38.20;;;;;;4118336;28;20102;-75
2022/03/02 11:37:57;;;;;;;0.00;0.00;;;12.20;38.50;;;;;;4120826;28;20138;-76
2022/03/02 11:40:40;;;;;;;0.00;0.00;;;12.20;38.30;;;;;;4120574;28;20473;-76
2022/03/02 11:43:20;;;;;;;0.00;0.00;;;12.50;38.30;;;;;;4121682;28;20051;-75
2022/03/02 11:45:47;;;;;;;0.00;0.00;;;12.80;37.60;;;;;;4121956;28;20046;-75
2022/03/02 11:48:15;;;;;;;0.00;0.00;;;12.60;37.30;;;;;;4119431;28;20051;-75
2022/03/02 11:50:57;;;;;;;0.00;0.00;;;12.20;37.60;;;;;;4121454;28;20134;-77
2022/03/02 11:53:33;;;;;;;0.00;0.00;;;12.10;38.20;;;;;;4135238;28;20042;-75
2022/03/02 11:56:00;;;;;;;0.00;0.00;;;12.10;38.50;;;;;;4121686;28;20060;-74
2022/03/02 11:58:24;;;;;;;0.00;0.00;;;12.00;38.50;;;;;;4121140;28;20050;-74
2022/03/02 12:00:46;;;;;;;0.00;0.00;;;12.00;38.70;;;;;;4134840;28;20046;-77
2022/03/02 12:03:11;;;;;;;0.00;0.00;;;12.10;38.80;;;;;;4121176;28;20053;-75
2022/03/02 12:05:37;;;;;;;0.00;0.00;;;12.20;38.80;;;;;;4121086;28;20058;-77
2022/03/02 12:08:10;;;;;;;0.00;0.00;;;12.40;38.70;;;;;;4134418;28;20046;-76
2022/03/02 12:10:37;;;;;;;0.00;0.00;;;12.60;39.40;;;;;;4120594;28;20489;-74
2022/03/02 12:12:59;;;;;;;0.00;0.00;;;12.30;40.70;;;;;;4134514;28;20042;-74
2022/03/02 12:15:27;;;;;;;0.00;0.00;;;12.70;40.90;;;;;;4121426;28;20090;-75
2022/03/02 12:18:06;;;;;;;0.00;0.00;;;13.30;39.30;;;;;;4121129;28;20055;-78
2022/03/02 12:20:28;;;;;;;0.00;0.00;;;13.20;38.30;;;;;;4107662;28;20122;-76
2022/03/02 12:22:54;;;;;;;0.00;0.00;;;12.80;38.60;;;;;;4121052;28;20046;-77
2022/03/02 12:25:23;;;;;;;0.00;0.00;;;13.00;39.00;;;;;;4121094;28;20114;-76
2022/03/02 12:28:05;;;;;;;0.00;0.00;;;13.20;39.00;;;;;;4121612;28;20129;-75
2022/03/02 12:30:30;;;;;;;0.00;0.00;;;13.40;38.70;;;;;;4148024;28;20464;-77
2022/03/02 12:32:54;;;;;;;0.00;0.00;;;13.70;38.40;;;;;;4121481;28;20051;-77
2022/03/02 12:35:22;;;;;;;0.00;0.00;;;13.30;39.10;;;;;;4121316;28;20082;-76
2022/03/02 12:37:46;;;;;;;0.00;0.00;;;13.10;40.20;;;;;;4121023;28;20390;-75
2022/03/02 12:40:13;;;;;;;0.00;0.00;;;13.00;39.70;;;;;;4134078;28;20050;-75
2022/03/02 12:42:39;;;;;;;0.00;0.00;;;12.70;40.30;;;;;;4121109;28;20078;-75
2022/03/02 12:45:04;;;;;;;0.00;0.00;;;12.90;40.40;;;;;;4121228;28;20089;-74
2022/03/02 12:47:28;;;;;;;0.00;0.00;;;13.50;40.20;;;;;;4134161;28;20134;-73
2022/03/02 12:49:57;;;;;;;0.00;0.00;;;14.40;39.20;;;;;;4134358;28;20104;-74
2022/03/02 12:52:22;;;;;;;0.00;0.00;;;14.90;38.20;;;;;;4119707;28;20126;-75